sensor_id;sensor_type;location;lat;lon;timestamp;pressure;altitude;pressure_sealevel;temperature;humidity
7337;BME280;54510;42.016;23.098;2023-02-28T00:01:20;-21492.25;;;13.01;79.88
7337;BME280;54510;42.016;23.098;2023-02-28T00:03:46;-21488.91;;;12.89;79.83
7337;BME280;54510;42.016;23.098;2023-02-28T00:06:11;-21486.28;;;12.80;80.43
7337;BME280;54510;42.016;23.098;2023-02-28T00:08:38;-21483.66;;;12.70;80.89
7337;BME280;54510;42.016;23.098;2023-02-28T00:11:06;-21486.69;;;12.81;80.79
7337;BME280;54510;42.016;23.098;2023-02-28T00:13:33;-21493.06;;;13.04;80.15
7337;BME280;54510;42.016;23.098;2023-02-28T00:16:04;-21491.97;;;13.00;79.53
7337;BME280;54510;42.016;23.098;2023-02-28T00:18:30;-21490.56;;;12.95;79.85
7337;BME280;54510;42.016;23.098;2023-02-28T00:20:57;-21481.31;;;12.61;80.62
7337;BME280;54510;42.016;23.098;2023-02-28T00:23:23;-21484.06;;;12.72;80.53
7337;BME280;54510;42.016;23.098;2023-02-28T00:25:48;-21478.25;;;12.50;81.06
7337;BME280;54510;42.016;23.098;2023-02-28T00:28:14;-21485.19;;;12.76;80.94
7337;BME280;54510;42.016;23.098;2023-02-28T00:30:39;-21481.84;;;12.63;80.75
7337;BME280;54510;42.016;23.098;2023-02-28T00:33:05;-21478.53;;;12.51;81.42
7337;BME280;54510;42.016;23.098;2023-02-28T00:35:30;-21481.16;;;12.61;81.01
7337;BME280;54510;42.016;23.098;2023-02-28T00:37:56;-21485.72;;;12.78;80.44
7337;BME280;54510;42.016;23.098;2023-02-28T00:40:21;-21485.31;;;12.76;79.95
7337;BME280;54510;42.016;23.098;2023-02-28T00:42:46;-21482.28;;;12.65;80.36
7337;BME280;54510;42.016;23.098;2023-02-28T00:45:12;-21480.31;;;12.58;80.48
7337;BME280;54510;42.016;23.098;2023-02-28T00:47:37;-21484.06;;;12.72;80.30
7337;BME280;54510;42.016;23.098;2023-02-28T00:50:03;-21485.19;;;12.76;79.81
7337;BME280;54510;42.016;23.098;2023-02-28T00:52:29;-21481.16;;;12.61;79.95
7337;BME280;54510;42.016;23.098;2023-02-28T00:54:55;-21477.28;;;12.47;80.17
7337;BME280;54510;42.016;23.098;2023-02-28T00:57:21;-21478.25;;;12.50;80.71
7337;BME280;54510;42.016;23.098;2023-02-28T00:59:46;-21480.75;;;12.59;80.04
7337;BME280;54510;42.016;23.098;2023-02-28T01:02:11;-21482.00;;;12.64;79.52
7337;BME280;54510;42.016;23.098;2023-02-28T01:04:37;-21478.13;;;12.50;79.57
7337;BME280;54510;42.016;23.098;2023-02-28T01:07:02;-21479.09;;;12.53;79.63
7337;BME280;54510;42.016;23.098;2023-02-28T01:09:28;-21477.28;;;12.47;79.97
7337;BME280;54510;42.016;23.098;2023-02-28T01:11:54;-21472.72;;;12.30;80.09
7337;BME280;54510;42.016;23.098;2023-02-28T01:14:19;-21471.47;;;12.25;80.25
7337;BME280;54510;42.016;23.098;2023-02-28T01:16:45;-21470.22;;;12.21;80.57
7337;BME280;54510;42.016;23.098;2023-02-28T01:19:10;-21450.53;;;11.49;83.24
7337;BME280;54510;42.016;23.098;2023-02-28T01:21:36;-21454.97;;;11.65;83.42
7337;BME280;54510;42.016;23.098;2023-02-28T01:24:03;-21459.81;;;11.83;82.24
7337;BME280;54510;42.016;23.098;2023-02-28T01:26:29;-21459.53;;;11.82;81.56
7337;BME280;54510;42.016;23.098;2023-02-28T01:28:54;-21459.81;;;11.83;81.49
7337;BME280;54510;42.016;23.098;2023-02-28T01:31:21;-21457.31;;;11.74;81.52
7337;BME280;54510;42.016;23.098;2023-02-28T01:33:47;-21458.44;;;11.78;81.46
7337;BME280;54510;42.016;23.098;2023-02-28T01:36:19;-21456.63;;;11.71;81.02
7337;BME280;54510;42.016;23.098;2023-02-28T01:38:45;-21454.84;;;11.65;81.43
7337;BME280;54510;42.016;23.098;2023-02-28T01:41:33;-21455.38;;;11.67;81.28
7337;BME280;54510;42.016;23.098;2023-02-28T01:44:05;-21454.84;;;11.65;81.24
7337;BME280;54510;42.016;23.098;2023-02-28T01:46:34;-21453.44;;;11.60;81.18
7337;BME280;54510;42.016;23.098;2023-02-28T01:49:08;-21454.69;;;11.64;81.03
7337;BME280;54510;42.016;23.098;2023-02-28T01:51:41;-21453.72;;;11.61;81.23
7337;BME280;54510;42.016;23.098;2023-02-28T01:54:13;-21447.63;;;11.38;81.65
7337;BME280;54510;42.016;23.098;2023-02-28T01:56:48;-21449.97;;;11.47;81.71
7337;BME280;54510;42.016;23.098;2023-02-28T01:59:22;-21451.22;;;11.52;82.00
7337;BME280;54510;42.016;23.098;2023-02-28T02:01:49;-21457.47;;;11.74;81.52
7337;BME280;54510;42.016;23.098;2023-02-28T02:04:15;-21459.97;;;11.83;80.83
7337;BME280;54510;42.016;23.098;2023-02-28T02:06:43;-21460.66;;;11.86;80.39
7337;BME280;54510;42.016;23.098;2023-02-28T02:09:10;-21459.00;;;11.80;80.26
7337;BME280;54510;42.016;23.098;2023-02-28T02:11:36;-21460.38;;;11.85;79.81
7337;BME280;54510;42.016;23.098;2023-02-28T02:14:26;-21458.72;;;11.79;79.56
7337;BME280;54510;42.016;23.098;2023-02-28T02:17:33;-21461.75;;;11.90;79.76
7337;BME280;54510;42.016;23.098;2023-02-28T02:25:56;-21453.03;;;11.58;79.70
7337;BME280;54510;42.016;23.098;2023-02-28T02:31:25;-21452.59;;;11.57;80.14
7337;BME280;54510;42.016;23.098;2023-02-28T02:37:07;-21460.09;;;11.84;78.75
7337;BME280;54510;42.016;23.098;2023-02-28T02:39:57;-21464.81;;;12.01;78.25
7337;BME280;54510;42.016;23.098;2023-02-28T02:42:29;-21467.72;;;12.12;77.92
7337;BME280;54510;42.016;23.098;2023-02-28T02:45:05;-21464.25;;;11.99;77.77
7337;BME280;54510;42.016;23.098;2023-02-28T02:47:32;-21461.75;;;11.90;77.37
7337;BME280;54510;42.016;23.098;2023-02-28T02:50:02;-21461.34;;;11.88;77.32
7337;BME280;54510;42.016;23.098;2023-02-28T02:52:36;-21459.41;;;11.81;77.50
7337;BME280;54510;42.016;23.098;2023-02-28T02:55:04;-21463.00;;;11.95;77.61
7337;BME280;54510;42.016;23.098;2023-02-28T02:57:36;-21463.16;;;11.95;77.64
7337;BME280;54510;42.016;23.098;2023-02-28T03:00:04;-21467.03;;;12.09;77.48
7337;BME280;54510;42.016;23.098;2023-02-28T03:02:34;-21466.06;;;12.06;77.19
7337;BME280;54510;42.016;23.098;2023-02-28T03:05:08;-21462.59;;;11.93;77.88
7337;BME280;54510;42.016;23.098;2023-02-28T03:07:38;-21465.78;;;12.05;77.71
7337;BME280;54510;42.016;23.098;2023-02-28T03:10:31;-21468.97;;;12.16;77.27
7337;BME280;54510;42.016;23.098;2023-02-28T03:15:38;-21467.59;;;12.11;77.57
7337;BME280;54510;42.016;23.098;2023-02-28T03:18:24;-21464.53;;;12.00;77.95
7337;BME280;54510;42.016;23.098;2023-02-28T03:23:42;-21460.09;;;11.84;79.06
7337;BME280;54510;42.016;23.098;2023-02-28T03:26:19;-21463.28;;;11.96;77.94
7337;BME280;54510;42.016;23.098;2023-02-28T03:31:21;-21455.66;;;11.68;77.89
7337;BME280;54510;42.016;23.098;2023-02-28T03:33:56;-21454.56;;;11.64;77.86
7337;BME280;54510;42.016;23.098;2023-02-28T03:36:27;-21459.00;;;11.80;77.74
7337;BME280;54510;42.016;23.098;2023-02-28T03:38:56;-21452.59;;;11.57;78.24
7337;BME280;54510;42.016;23.098;2023-02-28T03:41:34;-21447.63;;;11.38;79.46
7337;BME280;54510;42.016;23.098;2023-02-28T03:44:09;-21455.66;;;11.68;78.63
7337;BME280;54510;42.016;23.098;2023-02-28T03:46:46;-21461.22;;;11.88;77.69
7337;BME280;54510;42.016;23.098;2023-02-28T03:51:40;-21447.63;;;11.38;77.35
7337;BME280;54510;42.016;23.098;2023-02-28T03:54:13;-21444.00;;;11.25;77.68
7337;BME280;54510;42.016;23.098;2023-02-28T03:56:47;-21446.22;;;11.33;77.31
7337;BME280;54510;42.016;23.098;2023-02-28T03:59:19;-21449.16;;;11.44;76.97
7337;BME280;54510;42.016;23.098;2023-02-28T04:01:48;-21447.06;;;11.36;76.75
7337;BME280;54510;42.016;23.098;2023-02-28T04:04:15;-21444.84;;;11.28;76.20
7337;BME280;54510;42.016;23.098;2023-02-28T04:06:41;-21448.03;;;11.40;76.18
7337;BME280;54510;42.016;23.098;2023-02-28T04:09:10;-21445.53;;;11.31;76.34
7337;BME280;54510;42.016;23.098;2023-02-28T04:11:40;-21447.91;;;11.39;76.04
7337;BME280;54510;42.016;23.098;2023-02-28T04:14:08;-21449.41;;;11.45;75.43
7337;BME280;54510;42.016;23.098;2023-02-28T04:16:36;-21446.78;;;11.35;75.37
7337;BME280;54510;42.016;23.098;2023-02-28T04:19:02;-21449.84;;;11.46;75.29
7337;BME280;54510;42.016;23.098;2023-02-28T04:21:34;-21452.47;;;11.56;75.36
7337;BME280;54510;42.016;23.098;2023-02-28T04:24:01;-21452.88;;;11.58;75.72
7337;BME280;54510;42.016;23.098;2023-02-28T04:26:30;-21448.44;;;11.41;75.78
7337;BME280;54510;42.016;23.098;2023-02-28T04:28:57;-21453.56;;;11.60;75.59
7337;BME280;54510;42.016;23.098;2023-02-28T04:31:23;-21453.72;;;11.61;75.88
7337;BME280;54510;42.016;23.098;2023-02-28T04:33:48;-21454.97;;;11.65;74.86
7337;BME280;54510;42.016;23.098;2023-02-28T04:36:13;-21455.38;;;11.67;74.99
7337;BME280;54510;42.016;23.098;2023-02-28T04:38:40;-21454.56;;;11.64;75.06
7337;BME280;54510;42.016;23.098;2023-02-28T04:41:06;-21453.44;;;11.60;75.69
7337;BME280;54510;42.016;23.098;2023-02-28T04:43:31;-21455.38;;;11.67;75.83
7337;BME280;54510;42.016;23.098;2023-02-28T04:46:00;-21454.84;;;11.65;75.71
7337;BME280;54510;42.016;23.098;2023-02-28T04:48:31;-21453.44;;;11.60;76.06
7337;BME280;54510;42.016;23.098;2023-02-28T04:51:01;-21453.72;;;11.61;75.83
7337;BME280;54510;42.016;23.098;2023-02-28T04:53:28;-21451.78;;;11.54;75.99
7337;BME280;54510;42.016;23.098;2023-02-28T04:55:54;-21450.81;;;11.50;76.20
7337;BME280;54510;42.016;23.098;2023-02-28T04:58:20;-21449.28;;;11.44;75.47
7337;BME280;54510;42.016;23.098;2023-02-28T05:00:48;-21450.66;;;11.49;75.57
7337;BME280;54510;42.016;23.098;2023-02-28T05:03:13;-21449.84;;;11.46;75.78
7337;BME280;54510;42.016;23.098;2023-02-28T05:05:39;-21453.56;;;11.60;75.88
7337;BME280;54510;42.016;23.098;2023-02-28T05:08:04;-21456.34;;;11.70;75.03
7337;BME280;54510;42.016;23.098;2023-02-28T05:10:30;-21457.59;;;11.75;74.59
7337;BME280;54510;42.016;23.098;2023-02-28T05:12:56;-21459.81;;;11.83;74.00
7337;BME280;54510;42.016;23.098;2023-02-28T05:15:21;-21451.22;;;11.52;74.92
7337;BME280;54510;42.016;23.098;2023-02-28T05:17:47;-21455.09;;;11.66;75.25
7337;BME280;54510;42.016;23.098;2023-02-28T05:20:13;-21454.84;;;11.65;74.42
7337;BME280;54510;42.016;23.098;2023-02-28T05:22:39;-21455.94;;;11.69;74.96
7337;BME280;54510;42.016;23.098;2023-02-28T05:25:06;-21461.22;;;11.88;74.85
7337;BME280;54510;42.016;23.098;2023-02-28T05:27:32;-21456.06;;;11.69;74.84
7337;BME280;54510;42.016;23.098;2023-02-28T05:29:57;-21455.38;;;11.67;74.84
7337;BME280;54510;42.016;23.098;2023-02-28T05:32:24;-21452.75;;;11.57;75.01
7337;BME280;54510;42.016;23.098;2023-02-28T05:34:49;-21451.22;;;11.52;75.17
7337;BME280;54510;42.016;23.098;2023-02-28T05:37:15;-21450.66;;;11.49;75.64
7337;BME280;54510;42.016;23.098;2023-02-28T05:39:41;-21452.06;;;11.55;75.89
7337;BME280;54510;42.016;23.098;2023-02-28T05:42:07;-21455.25;;;11.66;75.21
7337;BME280;54510;42.016;23.098;2023-02-28T05:44:33;-21459.41;;;11.81;75.06
7337;BME280;54510;42.016;23.098;2023-02-28T05:46:59;-21454.00;;;11.62;74.98
7337;BME280;54510;42.016;23.098;2023-02-28T05:49:24;-21455.66;;;11.68;74.77
7337;BME280;54510;42.016;23.098;2023-02-28T05:51:50;-21455.66;;;11.68;74.58
7337;BME280;54510;42.016;23.098;2023-02-28T05:54:15;-21448.72;;;11.42;74.37
7337;BME280;54510;42.016;23.098;2023-02-28T05:56:41;-21448.72;;;11.42;75.03
7337;BME280;54510;42.016;23.098;2023-02-28T05:59:09;-21443.88;;;11.25;76.27
7337;BME280;54510;42.016;23.098;2023-02-28T06:01:40;-21444.28;;;11.26;76.46
7337;BME280;54510;42.016;23.098;2023-02-28T06:04:08;-21443.03;;;11.22;76.44
7337;BME280;54510;42.016;23.098;2023-02-28T06:06:35;-21451.91;;;11.54;75.62
7337;BME280;54510;42.016;23.098;2023-02-28T06:09:01;-21455.25;;;11.66;74.89
7337;BME280;54510;42.016;23.098;2023-02-28T06:11:27;-21457.06;;;11.73;74.49
7337;BME280;54510;42.016;23.098;2023-02-28T06:14:20;-21465.78;;;12.05;74.06
7337;BME280;54510;42.016;23.098;2023-02-28T06:16:45;-21465.50;;;12.04;73.86
7337;BME280;54510;42.016;23.098;2023-02-28T06:19:11;-21465.78;;;12.05;74.07
7337;BME280;54510;42.016;23.098;2023-02-28T06:21:38;-21467.59;;;12.11;74.36
7337;BME280;54510;42.016;23.098;2023-02-28T06:24:04;-21465.09;;;12.02;74.45
7337;BME280;54510;42.016;23.098;2023-02-28T06:26:30;-21462.88;;;11.94;75.07
7337;BME280;54510;42.016;23.098;2023-02-28T06:28:56;-21470.34;;;12.21;75.19
7337;BME280;54510;42.016;23.098;2023-02-28T06:31:22;-21470.34;;;12.21;74.02
7337;BME280;54510;42.016;23.098;2023-02-28T06:33:48;-21476.31;;;12.43;74.13
7337;BME280;54510;42.016;23.098;2023-02-28T06:36:15;-21476.72;;;12.45;73.11
7337;BME280;54510;42.016;23.098;2023-02-28T06:38:41;-21478.13;;;12.50;73.31
7337;BME280;54510;42.016;23.098;2023-02-28T06:41:07;-21478.13;;;12.50;73.09
7337;BME280;54510;42.016;23.098;2023-02-28T06:43:36;-21484.47;;;12.73;72.86
7337;BME280;54510;42.016;23.098;2023-02-28T06:46:04;-21486.97;;;12.82;72.14
7337;BME280;54510;42.016;23.098;2023-02-28T06:48:30;-21487.38;;;12.84;72.07
7337;BME280;54510;42.016;23.098;2023-02-28T06:51:22;-21490.03;;;12.93;72.12
7337;BME280;54510;42.016;23.098;2023-02-28T06:53:49;-21487.53;;;12.84;71.63
7337;BME280;54510;42.016;23.098;2023-02-28T06:56:16;-21490.72;;;12.96;70.55
7337;BME280;54510;42.016;23.098;2023-02-28T06:58:49;-21492.50;;;13.02;70.32
7337;BME280;54510;42.016;23.098;2023-02-28T07:01:16;-21491.81;;;13.00;70.07
7337;BME280;54510;42.016;23.098;2023-02-28T07:03:42;-21487.81;;;12.85;70.90
7337;BME280;54510;42.016;23.098;2023-02-28T07:06:07;-21498.75;;;13.25;70.39
7337;BME280;54510;42.016;23.098;2023-02-28T07:08:34;-21502.06;;;13.37;69.60
7337;BME280;54510;42.016;23.098;2023-02-28T07:11:01;-21503.31;;;13.42;69.09
7337;BME280;54510;42.016;23.098;2023-02-28T07:13:26;-21493.91;;;13.07;70.14
7337;BME280;54510;42.016;23.098;2023-02-28T07:15:56;-21493.75;;;13.07;69.95
7337;BME280;54510;42.016;23.098;2023-02-28T07:18:22;-21501.22;;;13.34;69.25
7337;BME280;54510;42.016;23.098;2023-02-28T07:20:48;-21499.16;;;13.27;69.03
7337;BME280;54510;42.016;23.098;2023-02-28T07:23:14;-21492.50;;;13.02;69.52
7337;BME280;54510;42.016;23.098;2023-02-28T07:25:39;-21493.63;;;13.06;70.04
7337;BME280;54510;42.016;23.098;2023-02-28T07:28:05;-21490.03;;;12.93;70.09
7337;BME280;54510;42.016;23.098;2023-02-28T07:30:30;-21495.13;;;13.12;70.09
7337;BME280;54510;42.016;23.098;2023-02-28T07:32:56;-21491.41;;;12.98;69.88
7337;BME280;54510;42.016;23.098;2023-02-28T07:35:22;-21493.19;;;13.05;70.39
7337;BME280;54510;42.016;23.098;2023-02-28T07:37:47;-21499.56;;;13.28;70.71
7337;BME280;54510;42.016;23.098;2023-02-28T07:40:13;-21507.59;;;13.58;69.67
7337;BME280;54510;42.016;23.098;2023-02-28T07:42:40;-21504.41;;;13.46;69.55
7337;BME280;54510;42.016;23.098;2023-02-28T07:45:07;-21495.84;;;13.15;70.65
7337;BME280;54510;42.016;23.098;2023-02-28T07:47:33;-21500.25;;;13.31;69.98
7337;BME280;54510;42.016;23.098;2023-02-28T07:49:59;-21502.75;;;13.40;69.65
7337;BME280;54510;42.016;23.098;2023-02-28T07:52:25;-21505.78;;;13.51;69.30
7337;BME280;54510;42.016;23.098;2023-02-28T07:54:51;-21500.00;;;13.30;69.76
7337;BME280;54510;42.016;23.098;2023-02-28T07:57:17;-21502.06;;;13.37;69.69
7337;BME280;54510;42.016;23.098;2023-02-28T07:59:43;-21504.69;;;13.47;69.73
7337;BME280;54510;42.016;23.098;2023-02-28T08:02:16;-21502.06;;;13.37;69.15
7337;BME280;54510;42.016;23.098;2023-02-28T08:04:42;-21501.38;;;13.35;69.88
7337;BME280;54510;42.016;23.098;2023-02-28T08:07:08;-21476.16;;;12.43;72.93
7337;BME280;54510;42.016;23.098;2023-02-28T08:09:38;-21477.00;;;12.46;72.86
7337;BME280;54510;42.016;23.098;2023-02-28T08:12:04;-21479.91;;;12.56;73.06
7337;BME280;54510;42.016;23.098;2023-02-28T08:14:30;-21487.13;;;12.83;72.45
7337;BME280;54510;42.016;23.098;2023-02-28T08:16:55;-21490.84;;;12.96;71.49
7337;BME280;54510;42.016;23.098;2023-02-28T08:19:21;-21496.53;;;13.17;70.98
7337;BME280;54510;42.016;23.098;2023-02-28T08:21:46;-21502.06;;;13.37;70.22
7337;BME280;54510;42.016;23.098;2023-02-28T08:24:11;-21500.69;;;13.32;70.18
7337;BME280;54510;42.016;23.098;2023-02-28T08:26:39;-21506.06;;;13.52;69.94
7337;BME280;54510;42.016;23.098;2023-02-28T08:29:05;-21501.22;;;13.34;70.18
7337;BME280;54510;42.016;23.098;2023-02-28T08:31:31;-21497.34;;;13.20;70.62
7337;BME280;54510;42.016;23.098;2023-02-28T08:33:57;-21508.44;;;13.61;69.40
7337;BME280;54510;42.016;23.098;2023-02-28T08:36:25;-21503.44;;;13.42;69.18
7337;BME280;54510;42.016;23.098;2023-02-28T08:38:50;-21510.63;;;13.69;68.05
7337;BME280;54510;42.016;23.098;2023-02-28T08:41:16;-21484.47;;;12.73;70.85
7337;BME280;54510;42.016;23.098;2023-02-28T08:43:41;-21491.13;;;12.97;69.80
7337;BME280;54510;42.016;23.098;2023-02-28T08:46:11;-21504.00;;;13.44;68.66
7337;BME280;54510;42.016;23.098;2023-02-28T08:48:37;-21511.34;;;13.71;67.35
7337;BME280;54510;42.016;23.098;2023-02-28T08:51:11;-21511.34;;;13.71;67.38
7337;BME280;54510;42.016;23.098;2023-02-28T08:53:37;-21514.78;;;13.84;67.48
7337;BME280;54510;42.016;23.098;2023-02-28T08:56:10;-21516.16;;;13.89;67.67
7337;BME280;54510;42.016;23.098;2023-02-28T08:58:36;-21512.03;;;13.74;67.72
7337;BME280;54510;42.016;23.098;2023-02-28T09:01:08;-21516.88;;;13.92;68.60
7337;BME280;54510;42.016;23.098;2023-02-28T09:03:34;-21521.56;;;14.09;67.88
7337;BME280;54510;42.016;23.098;2023-02-28T09:06:00;-21527.66;;;14.31;67.25
7337;BME280;54510;42.016;23.098;2023-02-28T09:08:28;-21515.75;;;13.88;68.23
7337;BME280;54510;42.016;23.098;2023-02-28T09:10:54;-21501.94;;;13.37;70.13
7337;BME280;54510;42.016;23.098;2023-02-28T09:13:22;-21497.22;;;13.20;70.46
7337;BME280;54510;42.016;23.098;2023-02-28T09:15:47;-21515.91;;;13.88;69.61
7337;BME280;54510;42.016;23.098;2023-02-28T09:18:13;-21522.41;;;14.12;68.61
7337;BME280;54510;42.016;23.098;2023-02-28T09:20:40;-21514.94;;;13.84;68.08
7337;BME280;54510;42.016;23.098;2023-02-28T09:23:07;-21516.16;;;13.89;68.81
7337;BME280;54510;42.016;23.098;2023-02-28T09:25:34;-21521.69;;;14.09;67.72
7337;BME280;54510;42.016;23.098;2023-02-28T09:28:00;-21513.53;;;13.79;68.50
7337;BME280;54510;42.016;23.098;2023-02-28T09:30:25;-21518.25;;;13.97;68.24
7337;BME280;54510;42.016;23.098;2023-02-28T09:32:51;-21524.06;;;14.18;67.33
7337;BME280;54510;42.016;23.098;2023-02-28T09:35:21;-21526.81;;;14.28;67.77
7337;BME280;54510;42.016;23.098;2023-02-28T09:37:48;-21532.47;;;14.49;67.06
7337;BME280;54510;42.016;23.098;2023-02-28T09:40:15;-21535.38;;;14.59;66.72
7337;BME280;54510;42.016;23.098;2023-02-28T09:42:45;-21531.78;;;14.46;65.00
7337;BME280;54510;42.016;23.098;2023-02-28T09:45:39;-21527.91;;;14.32;65.74
7337;BME280;54510;42.016;23.098;2023-02-28T09:48:19;-21537.59;;;14.68;64.76
7337;BME280;54510;42.016;23.098;2023-02-28T09:50:48;-21540.78;;;14.79;64.60
7337;BME280;54510;42.016;23.098;2023-02-28T09:53:31;-21549.75;;;15.12;63.77
7337;BME280;54510;42.016;23.098;2023-02-28T09:56:18;-21548.09;;;15.06;63.35
7337;BME280;54510;42.016;23.098;2023-02-28T09:58:56;-21548.91;;;15.09;63.23
7337;BME280;54510;42.016;23.098;2023-02-28T10:06:29;-21556.78;;;15.38;63.06
7337;BME280;54510;42.016;23.098;2023-02-28T10:09:02;-21556.09;;;15.35;62.19
7337;BME280;54510;42.016;23.098;2023-02-28T10:11:32;-21553.88;;;15.27;62.68
7337;BME280;54510;42.016;23.098;2023-02-28T10:14:12;-21543.41;;;14.89;64.30
7337;BME280;54510;42.016;23.098;2023-02-28T10:16:46;-21551.81;;;15.20;64.55
7337;BME280;54510;42.016;23.098;2023-02-28T10:24:35;-21576.09;;;16.09;60.83
7337;BME280;54510;42.016;23.098;2023-02-28T10:27:14;-21582.03;;;16.31;60.50
7337;BME280;54510;42.016;23.098;2023-02-28T10:29:43;-21581.88;;;16.30;60.17
7337;BME280;54510;42.016;23.098;2023-02-28T10:32:12;-21575.97;;;16.08;61.72
7337;BME280;54510;42.016;23.098;2023-02-28T10:34:40;-21578.16;;;16.16;61.77
7337;BME280;54510;42.016;23.098;2023-02-28T10:37:06;-21572.66;;;15.96;61.52
7337;BME280;54510;42.016;23.098;2023-02-28T10:39:37;-21579.81;;;16.23;60.50
7337;BME280;54510;42.016;23.098;2023-02-28T10:42:04;-21573.75;;;16.00;61.01
7337;BME280;54510;42.016;23.098;2023-02-28T10:44:30;-21579.28;;;16.20;60.90
7337;BME280;54510;42.016;23.098;2023-02-28T10:46:56;-21584.78;;;16.41;59.02
7337;BME280;54510;42.016;23.098;2023-02-28T10:49:23;-21586.44;;;16.47;59.07
7337;BME280;54510;42.016;23.098;2023-02-28T10:51:55;-21590.72;;;16.63;59.51
7337;BME280;54510;42.016;23.098;2023-02-28T10:54:26;-21585.06;;;16.42;59.09
7337;BME280;54510;42.016;23.098;2023-02-28T10:59:40;-21580.50;;;16.25;60.08
7337;BME280;54510;42.016;23.098;2023-02-28T11:02:34;-21588.09;;;16.53;60.23
7337;BME280;54510;42.016;23.098;2023-02-28T11:05:01;-21594.72;;;16.77;58.95
7337;BME280;54510;42.016;23.098;2023-02-28T11:07:27;-21590.28;;;16.61;60.36
7337;BME280;54510;42.016;23.098;2023-02-28T11:09:57;-21595.13;;;16.79;58.91
7337;BME280;54510;42.016;23.098;2023-02-28T11:12:30;-21604.22;;;17.12;58.78
7337;BME280;54510;42.016;23.098;2023-02-28T11:15:00;-21595.25;;;16.79;59.11
7337;BME280;54510;42.016;23.098;2023-02-28T11:17:30;-21597.31;;;16.87;59.09
7337;BME280;54510;42.016;23.098;2023-02-28T11:19:59;-21596.09;;;16.82;58.79
7337;BME280;54510;42.016;23.098;2023-02-28T11:22:31;-21602.56;;;17.06;57.90
7337;BME280;54510;42.016;23.098;2023-02-28T11:25:01;-21599.94;;;16.96;57.88
7337;BME280;54510;42.016;23.098;2023-02-28T11:29:56;-21598.56;;;16.91;59.17
7337;BME280;54510;42.016;23.098;2023-02-28T11:32:23;-21601.59;;;17.03;57.63
7337;BME280;54510;42.016;23.098;2023-02-28T11:35:13;-21601.88;;;17.04;57.19
7337;BME280;54510;42.016;23.098;2023-02-28T11:37:40;-21600.91;;;17.00;58.12
7337;BME280;54510;42.016;23.098;2023-02-28T11:40:18;-21599.38;;;16.94;58.80
7337;BME280;54510;42.016;23.098;2023-02-28T11:43:00;-21607.94;;;17.26;57.89
7337;BME280;54510;42.016;23.098;2023-02-28T11:45:43;-21606.81;;;17.22;57.44
7337;BME280;54510;42.016;23.098;2023-02-28T11:48:26;-21600.22;;;16.97;58.52
7337;BME280;54510;42.016;23.098;2023-02-28T11:51:32;-21604.91;;;17.15;58.52
7337;BME280;54510;42.016;23.098;2023-02-28T11:54:03;-21606.97;;;17.22;58.27
7337;BME280;54510;42.016;23.098;2023-02-28T11:56:32;-21611.22;;;17.38;57.50
7337;BME280;54510;42.016;23.098;2023-02-28T12:01:41;-21606.13;;;17.19;57.67
7337;BME280;54510;42.016;23.098;2023-02-28T12:04:26;-21604.63;;;17.14;58.05
7337;BME280;54510;42.016;23.098;2023-02-28T12:07:20;-21610.41;;;17.35;58.18
7337;BME280;54510;42.016;23.098;2023-02-28T12:18:03;-21612.19;;;17.42;58.15
7337;BME280;54510;42.016;23.098;2023-02-28T12:20:55;-21615.91;;;17.55;57.29
7337;BME280;54510;42.016;23.098;2023-02-28T12:23:49;-21607.94;;;17.26;57.40
7337;BME280;54510;42.016;23.098;2023-02-28T12:29:19;-21610.94;;;17.37;57.67
7337;BME280;54510;42.016;23.098;2023-02-28T12:31:55;-21611.50;;;17.39;57.83
7337;BME280;54510;42.016;23.098;2023-02-28T12:37:17;-21604.75;;;17.14;57.80
7337;BME280;54510;42.016;23.098;2023-02-28T12:39:48;-21606.97;;;17.22;57.96
7337;BME280;54510;42.016;23.098;2023-02-28T12:42:25;-21610.41;;;17.35;57.71
7337;BME280;54510;42.016;23.098;2023-02-28T12:45:02;-21613.56;;;17.47;57.51
7337;BME280;54510;42.016;23.098;2023-02-28T12:47:33;-21615.22;;;17.53;57.46
7337;BME280;54510;42.016;23.098;2023-02-28T12:50:02;-21615.50;;;17.54;57.44
7337;BME280;54510;42.016;23.098;2023-02-28T12:57:50;-21608.75;;;17.29;58.34
7337;BME280;54510;42.016;23.098;2023-02-28T13:00:22;-21614.53;;;17.50;57.74
7337;BME280;54510;42.016;23.098;2023-02-28T13:03:11;-21617.16;;;17.60;57.74
7337;BME280;54510;42.016;23.098;2023-02-28T13:08:20;-21613.16;;;17.45;57.80
7337;BME280;54510;42.016;23.098;2023-02-28T13:10:50;-21611.78;;;17.40;57.88
7337;BME280;54510;42.016;23.098;2023-02-28T13:13:24;-21610.41;;;17.35;58.31
7337;BME280;54510;42.016;23.098;2023-02-28T13:16:04;-21609.84;;;17.33;59.59
7337;BME280;54510;42.016;23.098;2023-02-28T13:18:46;-21603.66;;;17.10;59.73
7337;BME280;54510;42.016;23.098;2023-02-28T13:21:27;-21609.31;;;17.31;59.80
7337;BME280;54510;42.016;23.098;2023-02-28T13:29:01;-21603.38;;;17.09;60.85
7337;BME280;54510;42.016;23.098;2023-02-28T13:31:27;-21585.34;;;16.43;63.20
7337;BME280;54510;42.016;23.098;2023-02-28T13:36:29;-21597.31;;;16.87;62.86
7337;BME280;54510;42.016;23.098;2023-02-28T13:38:59;-21604.47;;;17.13;61.90
7337;BME280;54510;42.016;23.098;2023-02-28T13:44:02;-21602.97;;;17.08;61.34
7337;BME280;54510;42.016;23.098;2023-02-28T13:46:28;-21598.84;;;16.92;62.60
7337;BME280;54510;42.016;23.098;2023-02-28T13:48:55;-21598.28;;;16.90;62.69
7337;BME280;54510;42.016;23.098;2023-02-28T13:51:39;-21600.34;;;16.98;62.79
7337;BME280;54510;42.016;23.098;2023-02-28T13:59:25;-21601.72;;;17.03;62.46
7337;BME280;54510;42.016;23.098;2023-02-28T14:01:56;-21602.41;;;17.06;63.22
7337;BME280;54510;42.016;23.098;2023-02-28T14:07:06;-21604.63;;;17.14;62.78
7337;BME280;54510;42.016;23.098;2023-02-28T14:09:35;-21606.13;;;17.19;62.29
7337;BME280;54510;42.016;23.098;2023-02-28T14:15:40;-21604.22;;;17.12;61.70
7337;BME280;54510;42.016;23.098;2023-02-28T14:20:46;-21605.16;;;17.16;62.00
7337;BME280;54510;42.016;23.098;2023-02-28T14:26:33;-21604.63;;;17.14;62.10
7337;BME280;54510;42.016;23.098;2023-02-28T14:29:33;-21598.84;;;16.92;62.00
7337;BME280;54510;42.016;23.098;2023-02-28T14:32:32;-21596.63;;;16.84;62.62
7337;BME280;54510;42.016;23.098;2023-02-28T14:37:40;-21594.97;;;16.78;62.27